Time;durP1;ratioP1;P1;durP2;ratioP2;P2;SDS_P1;SDS_P2;PMS_P1;PMS_P2;Temp;Humidity;BMP_temperature;BMP_pressure;BME280_temperature;BME280_humidity;BME280_pressure;Samples;Min_cycle;Max_cycle;Signal;HPM_P1;HPM_P2
2022/03/04 00:01:19;;;;;;;25.40;14.23;;;1.10;99.90;;;2.29;100.00;-19804.97;5090019;28;20627;-60
2022/03/04 00:03:48;;;;;;;28.17;15.60;;;1.20;99.90;;;2.04;100.00;-19796.41;5090050;28;20750;-60
2022/03/04 00:06:16;;;;;;;30.43;15.23;;;1.10;99.90;;;2.19;100.00;-19801.38;5092731;28;20212;-60
2022/03/04 00:08:44;;;;;;;30.30;15.77;;;1.10;99.90;;;2.12;100.00;-19798.97;5093123;28;20826;-61
2022/03/04 00:11:13;;;;;;;26.93;15.53;;;1.20;99.90;;;2.34;100.00;-19806.66;5093663;28;20318;-62
2022/03/04 00:13:41;;;;;;;31.07;15.33;;;1.30;99.90;;;2.24;100.00;-19803.25;5093497;28;20223;-60
2022/03/04 00:16:09;;;;;;;29.87;15.43;;;1.30;99.90;;;2.26;100.00;-19803.94;5093688;28;20362;-61
2022/03/04 00:18:37;;;;;;;28.70;15.50;;;1.20;99.90;;;2.00;100.00;-19795.03;5093691;28;20258;-60
2022/03/04 00:21:05;;;;;;;30.60;15.97;;;1.20;99.90;;;2.02;100.00;-19795.72;5093897;28;20230;-59
2022/03/04 00:23:33;;;;;;;30.37;16.07;;;1.20;99.90;;;2.05;100.00;-19796.56;5081262;28;20252;-58
2022/03/04 00:26:03;;;;;;;28.73;15.57;;;1.10;99.90;;;1.99;100.00;-19794.53;5080220;28;20231;-55
2022/03/04 00:28:33;;;;;;;28.27;15.57;;;1.10;99.90;;;1.99;100.00;-19794.69;5083301;28;20263;-61
2022/03/04 00:31:02;;;;;;;30.27;15.90;;;1.10;99.90;;;2.06;100.00;-19796.91;5073312;28;20224;-62
2022/03/04 00:33:30;;;;;;;33.10;17.80;;;1.20;99.90;;;2.01;100.00;-19795.38;5081409;28;20296;-61
2022/03/04 00:35:58;;;;;;;33.77;17.37;;;1.20;99.90;;;2.17;100.00;-19800.84;5073494;28;20287;-62
2022/03/04 00:38:26;;;;;;;32.27;16.87;;;1.20;99.90;;;2.22;100.00;-19802.56;5092504;28;20315;-64
2022/03/04 00:40:54;;;;;;;34.00;17.77;;;1.20;99.90;;;2.21;100.00;-19802.06;5089040;28;20231;-59
2022/03/04 00:43:22;;;;;;;35.90;17.30;;;1.30;99.90;;;2.25;100.00;-19803.41;5072976;28;20294;-59
2022/03/04 00:45:52;;;;;;;35.10;18.77;;;1.20;99.90;;;2.12;100.00;-19799.16;5072535;28;20228;-61
2022/03/04 00:48:19;;;;;;;32.93;17.90;;;1.20;99.90;;;2.03;100.00;-19795.91;5091404;28;20287;-60
2022/03/04 00:50:48;;;;;;;32.63;18.00;;;1.20;99.90;;;2.07;100.00;-19797.44;5093048;28;20254;-59
2022/03/04 00:53:15;;;;;;;34.30;17.47;;;1.10;99.90;;;1.92;100.00;-19792.31;5092685;28;20778;-60
2022/03/04 00:55:43;;;;;;;35.07;18.00;;;1.10;99.90;;;2.11;100.00;-19798.63;5092641;28;20778;-62
2022/03/04 00:58:12;;;;;;;35.53;19.03;;;1.20;99.90;;;2.17;100.00;-19800.84;5092505;28;20307;-60
2022/03/04 01:00:40;;;;;;;34.23;19.20;;;1.20;99.90;;;2.18;100.00;-19801.03;5092638;28;20562;-60
2022/03/04 01:03:09;;;;;;;36.90;18.60;;;1.20;99.90;;;2.11;100.00;-19798.81;5092946;28;20201;-59
2022/03/04 01:05:38;;;;;;;36.43;17.73;;;1.20;99.90;;;1.91;100.00;-19791.97;5092346;28;20276;-59
2022/03/04 01:08:06;;;;;;;35.90;18.77;;;1.10;99.90;;;1.87;100.00;-19790.44;5092296;28;20666;-60
2022/03/04 01:10:35;;;;;;;30.10;18.37;;;1.00;99.90;;;1.91;100.00;-19791.78;5092662;28;20263;-60
2022/03/04 01:13:03;;;;;;;35.10;17.90;;;1.10;99.90;;;2.02;100.00;-19795.72;5092500;28;20270;-60
2022/03/04 01:15:31;;;;;;;37.20;18.50;;;1.10;99.90;;;1.93;100.00;-19792.66;5092672;28;20199;-59
2022/03/04 01:17:59;;;;;;;40.37;20.30;;;1.10;99.90;;;1.97;100.00;-19794.00;5092722;28;20199;-59
2022/03/04 01:20:30;;;;;;;37.10;19.03;;;1.10;99.90;;;2.06;100.00;-19796.91;5092734;28;20232;-60
2022/03/04 01:22:59;;;;;;;39.27;20.17;;;1.10;99.90;;;2.06;100.00;-19797.09;5091985;28;20760;-59
2022/03/04 01:25:27;;;;;;;40.10;20.67;;;1.10;99.90;;;2.09;100.00;-19797.94;5092478;28;20232;-61
2022/03/04 01:27:56;;;;;;;38.23;20.43;;;1.10;99.90;;;2.21;100.00;-19802.22;5092144;28;20246;-60
2022/03/04 01:30:24;;;;;;;36.17;18.13;;;1.20;99.90;;;2.22;100.00;-19802.56;5092856;28;20639;-60
2022/03/04 01:32:52;;;;;;;37.73;19.90;;;1.20;99.90;;;2.34;100.00;-19806.50;5092364;28;20318;-59
2022/03/04 01:35:20;;;;;;;37.93;19.90;;;1.30;99.90;;;2.07;100.00;-19797.44;5092230;28;20307;-59
2022/03/04 01:37:49;;;;;;;39.53;19.80;;;1.20;99.90;;;2.07;100.00;-19797.44;5091808;28;20278;-59
2022/03/04 01:40:17;;;;;;;36.97;19.73;;;1.10;99.90;;;2.08;100.00;-19797.78;5091997;28;20710;-60
2022/03/04 01:42:45;;;;;;;37.70;19.73;;;1.10;99.90;;;2.08;100.00;-19797.78;5092142;28;20290;-60
2022/03/04 01:45:14;;;;;;;37.27;19.73;;;1.10;99.90;;;2.00;100.00;-19794.88;5092567;28;20223;-60
2022/03/04 01:47:43;;;;;;;38.30;20.93;;;1.10;99.90;;;2.02;100.00;-19795.56;5091656;28;20311;-59
2022/03/04 01:50:11;;;;;;;38.27;21.00;;;1.10;99.90;;;1.92;100.00;-19792.31;5091771;28;20306;-61
2022/03/04 01:52:40;;;;;;;38.70;21.57;;;1.00;99.90;;;1.73;100.00;-19785.63;5091533;28;20591;-59
2022/03/04 01:55:10;;;;;;;39.17;21.53;;;0.90;99.90;;;1.74;100.00;-19785.97;5091553;28;20307;-60
2022/03/04 01:57:39;;;;;;;37.63;20.03;;;1.00;99.90;;;1.78;100.00;-19787.34;5091509;28;20364;-59
2022/03/04 02:00:12;;;;;;;42.97;20.87;;;1.00;99.90;;;1.86;100.00;-19790.25;5092047;28;20231;-61
2022/03/04 02:02:40;;;;;;;38.70;20.13;;;1.00;99.90;;;1.89;100.00;-19791.09;5091024;28;20311;-59
2022/03/04 02:05:13;;;;;;;35.70;20.27;;;1.00;99.90;;;1.81;100.00;-19788.38;5091503;28;20228;-60
2022/03/04 02:07:41;;;;;;;40.30;21.47;;;1.00;99.90;;;1.76;100.00;-19786.84;5091361;28;20216;-59
2022/03/04 02:10:12;;;;;;;39.23;20.30;;;1.00;99.90;;;1.88;100.00;-19790.75;5091527;28;20335;-59
2022/03/04 02:12:41;;;;;;;38.60;20.50;;;1.00;99.90;;;2.01;100.00;-19795.38;5091316;28;20272;-59
2022/03/04 02:15:10;;;;;;;40.70;21.40;;;1.10;99.90;;;1.90;100.00;-19791.63;5092284;28;20245;-60
2022/03/04 02:17:38;;;;;;;38.93;20.43;;;1.00;99.90;;;2.03;100.00;-19796.06;5091040;28;20303;-61
2022/03/04 02:20:08;;;;;;;44.50;21.73;;;1.00;99.90;;;1.87;100.00;-19790.59;5091142;28;20234;-60
2022/03/04 02:22:37;;;;;;;42.97;21.70;;;1.00;99.90;;;1.94;100.00;-19792.81;5090940;28;20276;-61
2022/03/04 02:25:06;;;;;;;43.27;22.50;;;1.10;99.90;;;2.07;100.00;-19797.44;5091554;28;20228;-60
2022/03/04 02:27:34;;;;;;;43.83;21.80;;;1.10;99.90;;;1.95;100.00;-19793.34;5093622;28;20286;-61
2022/03/04 02:30:04;;;;;;;41.83;21.27;;;1.10;99.90;;;1.99;100.00;-19794.69;5092016;28;20230;-59
2022/03/04 02:32:32;;;;;;;42.27;22.63;;;1.10;99.90;;;2.00;100.00;-19795.03;5091367;28;20314;-59
2022/03/04 02:35:01;;;;;;;43.10;21.43;;;1.00;99.90;;;1.98;100.00;-19794.19;5091293;28;20302;-60
2022/03/04 02:37:29;;;;;;;40.63;22.37;;;1.10;99.90;;;1.87;100.00;-19790.44;5090893;28;20643;-59
2022/03/04 02:39:58;;;;;;;42.70;23.00;;;1.00;99.90;;;1.88;100.00;-19790.75;5091227;28;20484;-58
2022/03/04 02:42:26;;;;;;;42.57;21.47;;;1.00;99.90;;;1.95;100.00;-19793.16;5091261;28;20280;-61
2022/03/04 02:44:54;;;;;;;46.43;21.50;;;1.10;99.90;;;1.91;100.00;-19791.97;5091382;28;20315;-59
2022/03/04 02:47:22;;;;;;;42.57;21.93;;;1.00;99.90;;;1.89;100.00;-19791.09;5091072;28;20302;-62
2022/03/04 02:49:51;;;;;;;43.03;21.87;;;1.10;99.90;;;1.79;100.00;-19787.88;5090926;28;20286;-59
2022/03/04 02:52:19;;;;;;;41.23;22.10;;;1.00;99.90;;;1.81;100.00;-19788.53;5090866;28;20293;-61
2022/03/04 02:54:47;;;;;;;46.27;22.23;;;1.00;99.90;;;1.99;100.00;-19794.53;5090929;28;20259;-60
2022/03/04 02:57:16;;;;;;;42.53;22.50;;;1.10;99.90;;;1.93;100.00;-19792.47;5091326;28;20679;-59
2022/03/04 02:59:44;;;;;;;41.50;22.10;;;1.10;99.90;;;2.01;100.00;-19795.22;5090296;28;20228;-59
2022/03/04 03:02:12;;;;;;;44.30;23.30;;;1.10;99.90;;;1.85;100.00;-19789.91;5090624;28;20319;-60
2022/03/04 03:04:40;;;;;;;42.87;22.30;;;1.10;99.90;;;1.93;100.00;-19792.66;5090489;28;20232;-61
2022/03/04 03:07:09;;;;;;;44.10;22.43;;;1.10;99.90;;;1.90;100.00;-19791.44;5091062;28;20307;-59
2022/03/04 03:09:37;;;;;;;43.50;22.00;;;1.00;99.90;;;1.92;100.00;-19792.31;5090385;28;20731;-59
2022/03/04 03:12:06;;;;;;;47.47;22.67;;;1.00;99.90;;;2.05;100.00;-19796.75;5091357;28;20612;-59
2022/03/04 03:14:35;;;;;;;45.93;22.80;;;1.10;99.90;;;2.16;100.00;-19800.34;5090489;28;20281;-60
2022/03/04 03:17:04;;;;;;;44.67;23.73;;;1.10;99.90;;;2.04;100.00;-19796.25;5090892;28;20281;-59
2022/03/04 03:19:32;;;;;;;44.10;22.67;;;1.10;99.90;;;2.00;100.00;-19794.88;5090815;28;20228;-61
2022/03/04 03:22:00;;;;;;;46.57;23.17;;;1.00;99.90;;;2.00;100.00;-19795.03;5090599;28;20247;-59
2022/03/04 03:24:29;;;;;;;44.17;23.33;;;1.10;99.90;;;2.03;100.00;-19796.06;5090654;28;20580;-60
2022/03/04 03:26:57;;;;;;;42.83;22.50;;;1.10;99.90;;;1.85;100.00;-19789.75;5091840;28;20215;-59
2022/03/04 03:29:25;;;;;;;46.83;22.97;;;1.00;99.90;;;2.01;100.00;-19795.38;5090659;28;20810;-58
2022/03/04 03:31:54;;;;;;;41.10;22.50;;;1.10;99.90;;;2.01;100.00;-19795.22;5090723;28;20248;-58
2022/03/04 03:34:22;;;;;;;41.37;22.37;;;1.10;99.90;;;1.86;100.00;-19790.25;5090865;28;20224;-59
2022/03/04 03:36:50;;;;;;;44.33;23.10;;;1.10;99.90;;;1.86;100.00;-19790.09;5090425;28;20237;-61
2022/03/04 03:39:18;;;;;;;48.57;23.73;;;1.10;99.90;;;2.07;100.00;-19797.25;5090795;28;20214;-61
2022/03/04 03:41:46;;;;;;;47.80;23.47;;;1.10;99.90;;;2.28;100.00;-19804.59;5093748;28;20311;-59
2022/03/04 03:44:14;;;;;;;42.53;23.50;;;1.20;99.90;;;2.26;100.00;-19803.75;5094866;28;20315;-60
2022/03/04 03:46:42;;;;;;;47.33;22.77;;;1.30;99.90;;;2.14;100.00;-19799.81;5094579;28;20227;-57
2022/03/04 03:49:12;;;;;;;47.43;23.87;;;1.30;99.90;;;2.17;100.00;-19800.69;5094172;28;20255;-58
2022/03/04 03:51:40;;;;;;;47.17;23.83;;;1.30;99.90;;;2.10;100.00;-19798.47;5094199;28;20235;-60
2022/03/04 03:54:08;;;;;;;47.30;24.13;;;1.20;99.90;;;2.15;100.00;-19800.00;5094380;28;20214;-58
2022/03/04 03:56:36;;;;;;;46.13;22.60;;;1.20;99.90;;;2.25;100.00;-19803.59;5094619;28;20317;-59
2022/03/04 03:59:04;;;;;;;44.23;23.43;;;1.30;99.90;;;2.03;100.00;-19795.91;5094042;28;20305;-61
2022/03/04 04:01:32;;;;;;;45.63;23.33;;;1.20;99.90;;;2.05;100.00;-19796.75;5094117;28;20275;-59
2022/03/04 04:04:00;;;;;;;49.17;23.53;;;1.20;99.90;;;2.28;100.00;-19804.59;5093958;28;20318;-59
2022/03/04 04:06:30;;;;;;;45.13;23.83;;;1.20;99.90;;;1.94;100.00;-19793.00;5094079;28;20216;-59
2022/03/04 04:08:57;;;;;;;45.70;22.90;;;1.20;99.90;;;1.97;100.00;-19794.00;5094114;28;20291;-60
2022/03/04 04:11:25;;;;;;;47.83;22.90;;;1.10;99.90;;;1.92;100.00;-19792.31;5093936;28;20452;-58
2022/03/04 04:13:54;;;;;;;48.40;24.07;;;1.10;99.90;;;2.04;100.00;-19796.25;5093809;28;20229;-59
2022/03/04 04:16:22;;;;;;;47.50;23.33;;;1.10;99.90;;;1.98;100.00;-19794.19;5093978;28;20633;-59
2022/03/04 04:18:50;;;;;;;48.77;23.53;;;1.10;99.90;;;1.89;100.00;-19791.09;5093692;28;20247;-58
2022/03/04 04:21:18;;;;;;;46.37;23.37;;;1.10;99.90;;;1.88;100.00;-19790.94;5094316;28;20286;-59
2022/03/04 04:23:48;;;;;;;49.27;23.37;;;1.10;99.90;;;1.91;100.00;-19791.97;5093479;28;20231;-59
2022/03/04 04:26:16;;;;;;;46.73;23.13;;;1.10;99.90;;;2.00;100.00;-19794.88;5093575;28;20313;-60
2022/03/04 04:28:44;;;;;;;52.03;23.70;;;1.20;99.90;;;2.06;100.00;-19796.91;5093470;28;20604;-59
2022/03/04 04:31:12;;;;;;;47.70;24.13;;;1.20;99.90;;;2.04;100.00;-19796.25;5093631;28;20323;-60
2022/03/04 04:33:40;;;;;;;50.03;23.07;;;1.20;99.90;;;2.04;100.00;-19796.41;5093624;28;20204;-59
2022/03/04 04:36:09;;;;;;;47.23;24.60;;;1.20;99.90;;;2.37;100.00;-19807.53;5094120;28;20531;-59
2022/03/04 04:38:38;;;;;;;48.07;23.33;;;1.30;99.90;;;2.38;100.00;-19807.88;5093094;28;20228;-59
2022/03/04 04:41:07;;;;;;;47.70;23.70;;;1.30;99.90;;;2.13;100.00;-19799.31;5093134;28;20722;-58
2022/03/04 04:43:35;;;;;;;51.70;24.77;;;1.30;99.90;;;2.01;100.00;-19795.38;5093077;28;20310;-59
2022/03/04 04:46:05;;;;;;;52.73;23.80;;;1.30;99.90;;;2.10;100.00;-19798.28;5092809;28;20226;-60
2022/03/04 04:48:33;;;;;;;48.20;24.20;;;1.20;99.90;;;2.30;100.00;-19805.28;5092554;28;20624;-60
2022/03/04 04:51:02;;;;;;;50.03;23.63;;;1.30;99.90;;;2.26;100.00;-19803.75;5093174;28;20573;-59
2022/03/04 04:53:31;;;;;;;46.87;23.70;;;1.30;99.90;;;2.11;100.00;-19798.81;5092022;28;20301;-59
2022/03/04 04:56:00;;;;;;;47.40;24.37;;;1.20;99.90;;;2.12;100.00;-19798.97;5093023;28;20246;-60
2022/03/04 04:58:29;;;;;;;48.23;25.30;;;1.30;99.90;;;2.23;100.00;-19802.91;5094748;28;20235;-59
2022/03/04 05:00:58;;;;;;;46.50;23.77;;;1.20;99.90;;;2.11;100.00;-19798.81;5094393;28;20251;-59
2022/03/04 05:03:28;;;;;;;48.53;24.27;;;1.20;99.90;;;2.10;100.00;-19798.47;5093485;28;20581;-58
2022/03/04 05:05:57;;;;;;;48.57;24.87;;;1.20;99.90;;;2.00;100.00;-19794.88;5093950;28;20286;-60
2022/03/04 05:08:26;;;;;;;50.30;24.80;;;1.20;99.90;;;1.94;100.00;-19793.00;5092790;28;20228;-60
2022/03/04 05:10:56;;;;;;;46.57;23.17;;;1.20;99.90;;;1.90;100.00;-19791.44;5092777;28;20314;-58
2022/03/04 05:13:24;;;;;;;52.13;23.77;;;1.10;99.90;;;1.85;100.00;-19789.91;5092985;28;20278;-60
2022/03/04 05:15:54;;;;;;;47.70;24.37;;;1.10;99.90;;;1.98;100.00;-19794.19;5092711;28;20223;-60
2022/03/04 05:18:22;;;;;;;51.33;25.43;;;1.10;99.90;;;2.00;100.00;-19795.03;5093476;28;20291;-60
2022/03/04 05:20:50;;;;;;;50.53;24.93;;;1.20;99.90;;;2.09;100.00;-19798.13;5092452;28;20641;-58
2022/03/04 05:26:00;;;;;;;50.87;23.10;;;1.30;99.90;;;2.24;100.00;-19803.25;5091959;28;20573;-60
2022/03/04 05:28:28;;;;;;;53.20;25.03;;;1.30;99.90;;;2.46;100.00;-19810.59;5092462;28;20278;-60
2022/03/04 05:30:58;;;;;;;50.57;23.87;;;1.30;99.90;;;2.13;100.00;-19799.47;5092463;28;20224;-59
2022/03/04 05:33:26;;;;;;;49.73;23.97;;;1.30;99.90;;;2.03;100.00;-19795.91;5092306;28;20697;-61
2022/03/04 05:35:54;;;;;;;50.40;24.00;;;1.20;99.90;;;2.04;100.00;-19796.41;5092864;28;20204;-59
2022/03/04 05:38:22;;;;;;;50.00;23.33;;;1.20;99.90;;;2.38;100.00;-19808.03;5091713;28;20228;-60
2022/03/04 05:40:50;;;;;;;44.17;22.30;;;1.30;99.90;;;2.22;100.00;-19802.38;5091589;28;20721;-59
2022/03/04 05:43:18;;;;;;;52.63;23.60;;;1.30;99.90;;;2.09;100.00;-19797.94;5091798;28;20311;-61
2022/03/04 05:45:46;;;;;;;50.40;23.40;;;1.30;99.90;;;2.08;100.00;-19797.59;5091307;28;25241;-60
2022/03/04 05:48:15;;;;;;;51.70;23.67;;;1.30;99.90;;;2.18;100.00;-19801.19;5091984;28;20270;-60
2022/03/04 05:50:43;;;;;;;49.23;23.27;;;1.20;99.90;;;2.10;100.00;-19798.28;5091532;28;20224;-61
2022/03/04 05:53:11;;;;;;;50.30;24.20;;;1.30;99.90;;;2.01;100.00;-19795.22;5091570;28;20323;-60
2022/03/04 05:55:39;;;;;;;49.93;22.63;;;1.20;99.90;;;2.01;100.00;-19795.38;5091834;28;20238;-60
2022/03/04 05:58:07;;;;;;;47.93;22.97;;;1.20;99.90;;;2.24;100.00;-19803.06;5091433;28;20310;-59
2022/03/04 06:00:35;;;;;;;52.70;25.20;;;1.30;99.90;;;2.33;100.00;-19806.16;5091855;28;20203;-61
2022/03/04 06:03:07;;;;;;;48.27;23.27;;;1.30;99.90;;;2.07;100.00;-19797.25;5092002;28;20184;-60
2022/03/04 06:05:37;;;;;;;51.50;24.07;;;1.30;99.90;;;2.38;100.00;-19807.88;5091328;28;20228;-59
2022/03/04 06:08:05;;;;;;;52.90;24.33;;;1.30;99.90;;;2.10;100.00;-19798.28;5091029;28;20228;-60
2022/03/04 06:10:33;;;;;;;47.13;23.63;;;1.30;99.90;;;2.12;100.00;-19798.97;5091164;28;20340;-59
2022/03/04 06:13:01;;;;;;;47.47;23.47;;;1.30;99.90;;;2.04;100.00;-19796.41;5091364;28;20223;-60
2022/03/04 06:15:29;;;;;;;48.80;24.67;;;1.20;99.90;;;2.03;100.00;-19795.91;5091522;28;20341;-59
2022/03/04 06:17:57;;;;;;;54.23;24.03;;;1.20;99.90;;;2.20;100.00;-19801.69;5091696;28;20203;-60
2022/03/04 06:20:26;;;;;;;53.07;23.67;;;1.30;99.90;;;2.19;100.00;-19801.53;5091025;28;20258;-60
2022/03/04 06:22:55;;;;;;;50.13;22.53;;;1.30;99.90;;;2.26;100.00;-19803.94;5090659;28;20259;-59
2022/03/04 06:25:23;;;;;;;48.80;23.70;;;1.30;99.90;;;2.41;100.00;-19808.88;5090943;28;20310;-60
2022/03/04 06:27:53;;;;;;;48.77;22.00;;;1.40;99.90;;;2.26;100.00;-19803.94;5090425;28;20619;-60
2022/03/04 06:30:22;;;;;;;55.80;24.37;;;1.40;99.90;;;2.35;100.00;-19806.84;5091734;28;20393;-61
2022/03/04 06:32:50;;;;;;;48.87;24.30;;;1.40;99.90;;;2.50;100.00;-19812.13;5090678;28;20226;-62
2022/03/04 06:35:19;;;;;;;49.90;24.43;;;1.50;99.90;;;2.40;100.00;-19808.56;5090623;28;20251;-61
2022/03/04 06:37:47;;;;;;;47.27;23.43;;;1.50;99.90;;;2.31;100.00;-19805.47;5090628;28;20249;-59
2022/03/04 06:40:16;;;;;;;51.83;24.93;;;1.50;99.90;;;2.47;100.00;-19810.94;5090788;28;20328;-61
2022/03/04 06:42:46;;;;;;;45.53;23.63;;;1.40;99.90;;;2.47;100.00;-19811.09;5089913;28;20208;-60
2022/03/04 06:45:14;;;;;;;44.90;23.37;;;1.40;99.90;;;2.65;100.00;-19816.91;5091434;28;20191;-60
2022/03/04 06:47:42;;;;;;;47.63;23.43;;;1.50;99.90;;;2.43;100.00;-19809.75;5090204;28;20359;-60
2022/03/04 06:50:10;;;;;;;41.53;21.80;;;1.50;99.90;;;2.53;100.00;-19813.00;5090382;28;20227;-60
2022/03/04 06:52:38;;;;;;;45.77;22.90;;;1.50;99.90;;;2.57;100.00;-19814.38;5090571;28;20527;-60
2022/03/04 06:55:07;;;;;;;46.53;23.40;;;1.50;99.90;;;2.56;100.00;-19813.84;5090531;28;20312;-58
2022/03/04 06:57:39;;;;;;;44.60;22.13;;;1.50;99.90;;;2.67;100.00;-19817.78;5090339;28;20294;-61
2022/03/04 07:00:10;;;;;;;42.23;22.07;;;1.50;99.90;;;2.55;100.00;-19813.50;5090859;28;20634;-58
2022/03/04 07:02:39;;;;;;;43.10;20.63;;;1.50;99.90;;;2.50;100.00;-19811.97;5090217;28;20258;-60
2022/03/04 07:05:10;;;;;;;43.17;21.60;;;1.50;99.90;;;2.72;100.00;-19819.31;5090474;28;20228;-59
2022/03/04 07:07:38;;;;;;;44.87;21.73;;;1.60;99.90;;;2.69;100.00;-19818.47;5090178;28;20224;-60
2022/03/04 07:10:08;;;;;;;42.63;20.97;;;1.60;99.90;;;2.65;100.00;-19817.09;5090597;28;20250;-60
2022/03/04 07:12:37;;;;;;;38.50;19.83;;;1.70;99.90;;;2.72;100.00;-19819.31;5090246;28;20206;-60
2022/03/04 07:15:07;;;;;;;42.83;20.43;;;1.70;99.90;;;2.94;100.00;-19826.84;5091538;28;20641;-62
2022/03/04 07:17:35;;;;;;;44.07;21.30;;;1.70;99.90;;;2.73;100.00;-19819.66;5094292;28;20298;-59
2022/03/04 07:20:04;;;;;;;41.07;19.77;;;1.80;99.90;;;2.72;100.00;-19819.31;5094408;28;20234;-60
2022/03/04 07:22:32;;;;;;;39.10;19.83;;;1.80;99.90;;;2.82;100.00;-19822.72;5095573;28;20462;-65
2022/03/04 07:24:59;;;;;;;38.00;19.67;;;1.80;99.90;;;2.91;100.00;-19825.81;5094747;28;20222;-60
2022/03/04 07:27:27;;;;;;;35.20;19.80;;;1.80;99.90;;;3.04;100.00;-19830.44;5094559;28;20234;-62
2022/03/04 07:29:56;;;;;;;38.30;19.43;;;1.90;99.90;;;3.06;100.00;-19830.94;5094845;28;20603;-61
2022/03/04 07:32:24;;;;;;;33.23;18.63;;;1.90;99.90;;;3.08;100.00;-19831.78;5094273;28;20223;-61
2022/03/04 07:34:56;;;;;;;37.60;18.83;;;2.00;99.90;;;3.04;100.00;-19830.25;5094448;28;20277;-62
2022/03/04 07:37:24;;;;;;;38.90;19.20;;;2.00;99.90;;;3.10;100.00;-19832.31;5093991;28;20219;-61
2022/03/04 07:39:53;;;;;;;33.20;18.20;;;2.10;99.90;;;3.26;100.00;-19837.94;5093725;28;20218;-61
2022/03/04 07:42:22;;;;;;;36.87;19.23;;;2.20;99.90;;;3.57;100.00;-19848.53;5094825;28;20300;-62
2022/03/04 07:44:50;;;;;;;33.67;17.50;;;2.30;99.90;;;3.47;100.00;-19844.97;5093974;28;20240;-61
2022/03/04 07:47:20;;;;;;;36.27;18.87;;;2.30;99.90;;;3.29;100.00;-19838.81;5094004;28;20223;-60
2022/03/04 07:49:47;;;;;;;33.07;17.67;;;2.30;99.90;;;3.57;100.00;-19848.53;5094355;28;20223;-59
2022/03/04 07:52:15;;;;;;;30.60;16.97;;;2.40;99.90;;;3.51;100.00;-19846.31;5094323;28;20231;-61
2022/03/04 07:54:44;;;;;;;26.80;15.57;;;2.40;99.90;;;3.42;100.00;-19843.25;5094059;28;20211;-60
2022/03/04 07:57:12;;;;;;;26.60;16.00;;;2.40;99.90;;;3.46;100.00;-19844.78;5094001;28;20203;-60
2022/03/04 07:59:40;;;;;;;29.13;16.30;;;2.40;99.90;;;3.77;100.00;-19855.03;5093087;28;20237;-60
2022/03/04 08:02:07;;;;;;;27.80;15.73;;;2.50;99.90;;;3.82;100.00;-19856.94;5093101;28;20584;-62
2022/03/04 08:04:37;;;;;;;23.93;15.17;;;2.60;99.90;;;3.79;100.00;-19855.91;5092963;28;20262;-60
2022/03/04 08:07:05;;;;;;;27.03;14.90;;;2.60;99.90;;;3.86;100.00;-19858.28;5093367;28;20225;-61
2022/03/04 08:09:33;;;;;;;25.57;14.80;;;2.70;99.90;;;3.86;100.00;-19858.28;5093151;28;20223;-61
2022/03/04 08:12:01;;;;;;;25.90;14.93;;;2.70;99.90;;;4.00;100.00;-19863.06;5093375;28;20575;-61
2022/03/04 08:14:29;;;;;;;23.37;14.17;;;2.80;99.90;;;4.28;99.16;-19872.66;5092697;28;20238;-61
2022/03/04 08:16:57;;;;;;;26.13;14.00;;;3.00;99.90;;;4.20;96.67;-19869.91;5093095;28;20227;-61
2022/03/04 08:19:25;;;;;;;24.57;13.83;;;3.00;99.90;;;4.54;96.00;-19881.53;5093176;28;20238;-60
2022/03/04 08:21:54;;;;;;;23.83;14.07;;;3.20;99.90;;;4.54;96.01;-19881.38;5092884;28;20621;-61
2022/03/04 08:24:42;;;;;;;24.93;13.63;;;3.30;99.90;;;4.47;95.48;-19878.97;5092458;28;20265;-61
2022/03/04 08:27:10;;;;;;;20.30;13.80;;;3.40;99.90;;;4.80;92.95;-19890.41;5091870;28;20201;-61
2022/03/04 08:29:38;;;;;;;24.80;14.03;;;3.40;99.90;;;4.55;93.49;-19881.72;5092665;28;20231;-60
2022/03/04 08:32:06;;;;;;;23.07;14.07;;;3.40;99.90;;;4.42;93.56;-19877.44;5092698;28;20220;-60
2022/03/04 08:34:35;;;;;;;24.37;13.33;;;3.30;99.90;;;4.55;92.72;-19881.88;5092259;28;20225;-61
2022/03/04 08:37:04;;;;;;;23.43;12.87;;;3.20;99.90;;;4.68;92.23;-19886.31;5092108;28;20221;-62
2022/03/04 08:39:32;;;;;;;26.30;13.60;;;3.20;99.90;;;4.75;94.48;-19888.72;5092153;28;20181;-60
2022/03/04 08:42:06;;;;;;;22.40;12.73;;;3.30;99.90;;;4.74;91.65;-19888.38;5093011;28;20591;-60
2022/03/04 08:44:34;;;;;;;23.57;13.57;;;3.30;99.90;;;4.74;91.36;-19888.19;5093579;28;20236;-61
2022/03/04 08:47:03;;;;;;;21.70;13.80;;;3.30;99.90;;;5.01;90.98;-19897.44;5093484;28;20575;-60
2022/03/04 08:49:31;;;;;;;22.37;13.20;;;3.40;99.90;;;4.90;90.49;-19893.84;5093485;28;20230;-61
2022/03/04 08:51:59;;;;;;;20.10;12.23;;;3.60;99.90;;;5.00;89.14;-19897.09;5093656;28;20224;-60
2022/03/04 08:54:29;;;;;;;22.73;12.93;;;3.70;99.90;;;5.11;90.15;-19900.69;5093317;28;20235;-61
2022/03/04 08:56:57;;;;;;;21.23;13.57;;;3.60;99.90;;;4.75;91.10;-19888.72;5093893;28;20196;-60
2022/03/04 08:59:25;;;;;;;20.60;11.27;;;3.60;99.90;;;4.78;92.31;-19889.56;5093290;28;20229;-62
2022/03/04 09:01:53;;;;;;;21.93;12.53;;;3.50;99.90;;;4.87;92.34;-19892.66;5093668;28;20233;-60
2022/03/04 09:04:25;;;;;;;19.90;11.60;;;3.60;99.90;;;4.80;92.40;-19890.41;5092933;28;20313;-60
2022/03/04 09:06:53;;;;;;;21.43;12.30;;;3.60;99.90;;;5.09;90.15;-19900.00;5093104;28;20267;-61
2022/03/04 09:09:21;;;;;;;19.90;12.47;;;3.70;99.90;;;4.88;88.38;-19893.00;5093074;28;20656;-61
2022/03/04 09:11:50;;;;;;;22.47;13.20;;;3.70;99.90;;;4.74;89.95;-19888.19;5092817;28;20229;-60
2022/03/04 09:14:19;;;;;;;20.63;13.17;;;3.60;99.90;;;4.70;90.75;-19886.84;5092719;28;20229;-62
2022/03/04 09:16:47;;;;;;;24.43;13.13;;;3.60;99.90;;;4.53;91.19;-19881.19;5092742;28;20270;-61
2022/03/04 09:19:16;;;;;;;21.73;13.10;;;3.40;99.90;;;4.67;92.05;-19885.81;5092115;28;20229;-60
2022/03/04 09:21:43;;;;;;;22.10;13.60;;;3.40;99.90;;;5.04;90.56;-19898.47;5092487;28;20200;-60
2022/03/04 09:24:12;;;;;;;22.23;13.17;;;3.60;99.90;;;5.08;88.99;-19899.66;5092980;28;20232;-62
2022/03/04 09:26:40;;;;;;;21.63;12.77;;;3.70;99.90;;;5.07;90.96;-19899.50;5092433;28;20226;-61
2022/03/04 09:29:10;;;;;;;23.70;13.73;;;3.70;99.90;;;5.05;90.56;-19898.63;5092268;28;20226;-61
2022/03/04 09:31:37;;;;;;;21.43;13.07;;;3.70;99.90;;;5.20;89.65;-19903.75;5092050;28;20212;-62
2022/03/04 09:34:05;;;;;;;25.37;14.10;;;3.90;99.90;;;5.27;89.52;-19906.16;5092214;28;20703;-61
2022/03/04 09:36:33;;;;;;;21.13;13.80;;;3.90;99.90;;;5.21;89.73;-19904.09;5092171;28;20297;-61
2022/03/04 09:39:01;;;;;;;21.93;13.60;;;3.90;99.90;;;5.16;90.27;-19902.56;5092067;28;20730;-60
2022/03/04 09:41:30;;;;;;;22.27;13.17;;;3.90;99.90;;;5.09;87.78;-19900.16;5091965;28;20224;-61
2022/03/04 09:43:58;;;;;;;21.30;12.67;;;3.80;99.90;;;4.94;90.78;-19895.22;5091856;28;20224;-61
2022/03/04 09:46:28;;;;;;;19.67;12.40;;;3.70;99.90;;;5.19;89.30;-19903.41;5091871;28;20717;-61
2022/03/04 09:48:56;;;;;;;21.07;12.20;;;3.70;99.90;;;5.07;90.53;-19899.31;5091998;28;20233;-61
2022/03/04 09:51:24;;;;;;;19.30;12.47;;;3.70;99.90;;;5.28;87.69;-19906.50;5092420;28;20200;-60
2022/03/04 09:53:52;;;;;;;18.50;12.17;;;3.90;99.90;;;5.32;88.01;-19907.84;5095054;28;20227;-61
2022/03/04 09:56:20;;;;;;;16.43;10.37;;;3.90;99.90;;;5.05;89.18;-19898.63;5093191;28;20277;-61
2022/03/04 09:58:49;;;;;;;17.77;11.47;;;3.80;99.90;;;4.63;90.65;-19884.59;5091727;28;20327;-62
2022/03/04 10:01:23;;;;;;;17.13;11.13;;;3.60;99.90;;;4.50;91.65;-19880.00;5091860;28;20230;-60
2022/03/04 10:03:55;;;;;;;13.57;9.00;;;3.50;99.90;;;4.32;93.79;-19874.03;5092022;28;20230;-61
2022/03/04 10:06:23;;;;;;;14.37;9.40;;;3.30;99.90;;;4.48;93.14;-19879.47;5092297;28;20210;-60
2022/03/04 10:08:53;;;;;;;12.10;7.97;;;3.40;99.90;;;4.41;93.99;-19876.94;5091332;28;20235;-62
2022/03/04 10:11:29;;;;;;;11.73;7.33;;;3.30;99.90;;;4.26;93.75;-19871.97;5091530;28;20223;-62
2022/03/04 10:13:59;;;;;;;11.87;7.00;;;3.20;99.90;;;4.20;93.73;-19869.75;5091592;28;20261;-61
2022/03/04 10:16:30;;;;;;;9.17;6.37;;;3.20;99.90;;;4.47;91.33;-19879.16;5091368;28;20310;-60